createdAt,value
2019-02-14T00:00:42.403Z,0.00
2019-02-14T00:01:42.405Z,0.00
2019-02-14T00:02:42.394Z,0.00
2019-02-14T00:03:42.273Z,0.00
2019-02-14T00:04:42.273Z,0.00
2019-02-14T01:42:21.016Z,0.00
2019-02-14T01:43:20.975Z,0.00
2019-02-14T01:44:20.898Z,0.00
2019-02-14T01:45:20.894Z,0.00
2019-02-14T01:46:20.776Z,0.00
2019-02-14T01:47:20.776Z,0.00
2019-02-14T01:48:20.651Z,0.00
2019-02-14T01:49:20.651Z,0.00
2019-02-14T01:50:20.735Z,0.00
2019-02-14T01:51:20.712Z,0.00
2019-02-14T01:52:20.653Z,0.00
2019-02-14T01:53:20.416Z,0.00
2019-02-14T01:54:20.410Z,0.00
2019-02-14T01:55:20.290Z,0.00
2019-02-14T01:56:20.289Z,0.00
2019-02-14T01:57:20.294Z,0.00
2019-02-14T01:58:20.169Z,0.00
2019-02-14T01:59:20.174Z,0.00
2019-02-14T02:00:20.051Z,0.00
2019-02-14T02:01:20.048Z,0.00
2019-02-14T02:02:20.048Z,0.00
2019-02-14T02:03:19.932Z,0.00
2019-02-14T02:04:19.928Z,0.00
2019-02-14T02:05:19.810Z,0.00
2019-02-14T02:06:19.808Z,0.00
2019-02-14T02:07:19.690Z,0.00
2019-02-14T02:08:19.687Z,0.00
2019-02-14T02:09:19.691Z,0.00
2019-02-14T02:10:19.571Z,0.00
2019-02-14T02:11:19.571Z,0.00
2019-02-14T02:12:19.448Z,0.00
2019-02-14T02:13:19.450Z,0.00
2019-02-14T02:14:19.331Z,0.00
2019-02-14T02:15:19.326Z,0.00
2019-02-14T02:16:19.330Z,0.00
2019-02-14T02:17:19.206Z,0.00
2019-02-14T02:18:19.207Z,0.00
2019-02-14T02:19:19.583Z,0.00
2019-02-14T02:20:19.410Z,0.00
2019-02-14T02:21:20.631Z,0.00
2019-02-14T02:22:18.965Z,0.00
2019-02-14T02:23:18.969Z,0.00
2019-02-14T02:24:18.845Z,0.00
2019-02-14T02:25:18.848Z,0.00
2019-02-14T02:26:18.723Z,0.00
2019-02-14T02:27:18.728Z,0.00
2019-02-14T02:28:18.728Z,0.00
2019-02-14T02:29:18.603Z,0.00
2019-02-14T02:30:18.605Z,0.00
2019-02-14T02:31:18.483Z,0.00
2019-02-14T02:32:18.482Z,0.00
2019-02-14T02:33:18.362Z,0.00
2019-02-14T02:34:18.361Z,0.00
2019-02-14T02:35:18.368Z,0.00
2019-02-14T02:36:18.242Z,0.00
2019-02-14T02:37:18.245Z,0.00
2019-02-14T02:38:18.122Z,0.00
2019-02-14T02:39:18.121Z,0.00
2019-02-14T02:40:18.005Z,0.00
2019-02-14T02:41:18.000Z,0.00
2019-02-14T02:42:18.001Z,0.00
2019-02-14T02:43:17.885Z,0.00
2019-02-14T02:44:17.881Z,0.00
2019-02-14T02:45:17.768Z,0.00
2019-02-14T02:46:17.772Z,0.00
2019-02-14T02:47:17.726Z,0.00
2019-02-14T02:48:17.642Z,0.00
2019-02-14T02:49:17.644Z,0.00
2019-02-14T02:50:17.522Z,0.00
2019-02-14T02:51:17.517Z,0.00
2019-02-14T02:52:17.399Z,0.00
2019-02-14T02:53:17.401Z,0.00
2019-02-14T02:54:17.398Z,0.00
2019-02-14T02:55:17.280Z,0.00
2019-02-14T02:56:17.279Z,0.00
2019-02-14T02:57:17.160Z,0.00
2019-02-14T02:58:17.158Z,0.00
2019-02-14T02:59:17.040Z,0.00
2019-02-14T03:00:17.039Z,0.00
2019-02-14T03:01:17.036Z,0.00
2019-02-14T03:02:16.916Z,0.00
2019-02-14T03:03:16.918Z,0.00
2019-02-14T03:04:16.796Z,0.00
2019-02-14T03:05:16.799Z,0.00
2019-02-14T03:06:16.676Z,0.00
2019-02-14T03:07:16.680Z,0.00
2019-02-14T03:08:16.676Z,0.00
2019-02-14T03:09:16.558Z,0.00
2019-02-14T03:10:16.556Z,0.00
2019-02-14T03:11:16.438Z,0.00
2019-02-14T03:12:16.434Z,0.00
2019-02-14T03:13:16.398Z,0.00
2019-02-14T03:14:16.313Z,0.00
2019-02-14T03:15:16.314Z,0.00
2019-02-14T03:16:16.198Z,0.00
2019-02-14T03:17:16.214Z,0.00
2019-02-14T03:18:16.074Z,0.00
2019-02-14T03:19:16.072Z,0.00
2019-02-14T03:20:16.071Z,0.00
2019-02-14T03:21:15.952Z,0.00
2019-02-14T03:22:15.952Z,0.00
2019-02-14T03:23:15.832Z,0.00
2019-02-14T03:24:15.835Z,0.00
2019-02-14T03:25:15.711Z,0.00
2019-02-14T03:26:15.719Z,0.00
2019-02-14T03:27:15.718Z,0.00
2019-02-14T03:28:15.594Z,0.00
2019-02-14T03:29:15.590Z,0.00
2019-02-14T03:30:15.480Z,0.00
2019-02-14T03:31:15.472Z,0.00
2019-02-14T03:32:15.351Z,0.00
2019-02-14T03:33:15.352Z,0.00
2019-02-14T03:34:15.351Z,0.00
2019-02-14T03:35:15.230Z,0.00
2019-02-14T03:36:19.248Z,0.00
2019-02-14T03:37:15.109Z,0.00
2019-02-14T03:38:15.113Z,0.00
2019-02-14T03:39:14.988Z,0.00
2019-02-14T03:40:15.071Z,0.00
2019-02-14T03:41:15.070Z,0.00
2019-02-14T03:42:14.951Z,0.00
2019-02-14T03:43:14.982Z,0.00
2019-02-14T03:44:14.771Z,0.00
2019-02-14T03:45:14.747Z,0.00
2019-02-14T03:46:14.710Z,0.00
2019-02-14T03:47:14.629Z,0.00
2019-02-14T03:48:14.625Z,0.00
2019-02-14T03:49:14.510Z,0.00
2019-02-14T03:50:14.505Z,0.00
2019-02-14T03:51:14.386Z,0.00
2019-02-14T03:52:14.387Z,0.00
2019-02-14T03:53:14.348Z,0.00
2019-02-14T03:54:14.271Z,0.00
2019-02-14T03:55:14.275Z,0.00
2019-02-14T03:56:14.146Z,0.00
2019-02-14T03:57:14.146Z,0.00
2019-02-14T03:58:14.024Z,0.00
2019-02-14T03:59:14.027Z,0.00
2019-02-14T04:00:13.989Z,0.00
2019-02-14T04:01:13.909Z,0.00
2019-02-14T04:02:13.906Z,0.00
2019-02-14T04:03:13.784Z,0.00
2019-02-14T04:04:13.788Z,0.00
2019-02-14T04:05:13.663Z,0.00
2019-02-14T04:06:13.674Z,0.00
2019-02-14T04:07:13.657Z,0.00
2019-02-14T04:08:13.543Z,0.00
2019-02-14T04:09:13.547Z,0.00
2019-02-14T04:10:13.423Z,0.00
2019-02-14T04:11:13.423Z,0.00
2019-02-14T04:12:13.304Z,0.00
2019-02-14T04:13:13.303Z,0.00
2019-02-14T04:14:13.308Z,0.00
2019-02-14T04:15:13.180Z,0.00
2019-02-14T04:16:13.187Z,0.00
2019-02-14T04:17:13.064Z,0.00
2019-02-14T04:18:13.062Z,0.00
2019-02-14T04:19:12.938Z,0.00
2019-02-14T04:20:12.943Z,0.00
2019-02-14T04:21:12.939Z,0.00
2019-02-14T04:22:12.821Z,0.00
2019-02-14T04:23:12.823Z,0.00
2019-02-14T04:24:12.703Z,0.00
2019-02-14T04:25:12.698Z,0.00
2019-02-14T04:26:12.577Z,0.00
2019-02-14T04:27:12.580Z,0.00
2019-02-14T04:28:12.579Z,0.00
2019-02-14T04:29:12.459Z,0.00
2019-02-14T04:30:12.460Z,0.00
2019-02-14T04:31:12.337Z,0.00
2019-02-14T04:32:12.343Z,0.00
2019-02-14T04:33:12.218Z,0.00
2019-02-14T04:34:12.219Z,0.00
2019-02-14T04:35:12.219Z,0.00
2019-02-14T04:36:12.096Z,0.00
2019-02-14T04:37:12.101Z,0.00
2019-02-14T04:38:11.978Z,0.00
2019-02-14T04:39:11.976Z,0.00
2019-02-14T04:40:11.862Z,0.00
2019-02-14T04:41:11.861Z,0.00
2019-02-14T04:42:11.854Z,0.00
2019-02-14T04:43:11.735Z,0.00
2019-02-14T04:44:12.100Z,0.00
2019-02-14T04:45:11.613Z,0.00
2019-02-14T04:46:11.615Z,0.00
2019-02-14T04:47:11.493Z,0.00
2019-02-14T04:48:11.497Z,0.00
2019-02-14T04:49:11.503Z,0.00
2019-02-14T04:50:11.381Z,0.00
2019-02-14T04:51:11.375Z,0.00
2019-02-14T04:52:11.259Z,0.00
2019-02-14T04:53:11.256Z,0.00
2019-02-14T04:54:11.138Z,0.00
2019-02-14T04:55:11.140Z,0.00
2019-02-14T04:56:11.132Z,0.00
2019-02-14T04:57:11.015Z,0.00
2019-02-14T04:58:11.014Z,0.00
2019-02-14T04:59:10.893Z,0.00
2019-02-14T05:00:10.892Z,0.00
2019-02-14T05:01:10.773Z,0.00
2019-02-14T05:02:10.771Z,0.00
2019-02-14T05:03:10.773Z,0.00
2019-02-14T05:04:10.652Z,0.00
2019-02-14T05:05:10.651Z,0.00
2019-02-14T05:06:10.533Z,0.00
2019-02-14T05:07:10.529Z,0.00
2019-02-14T05:08:10.410Z,0.00
2019-02-14T05:09:10.412Z,0.00
2019-02-14T05:10:10.411Z,0.00
2019-02-14T05:11:10.295Z,0.00
2019-02-14T05:12:10.291Z,0.00
2019-02-14T05:13:10.168Z,0.00
2019-02-14T05:14:10.177Z,0.00
2019-02-14T05:15:10.133Z,0.00
2019-02-14T05:16:10.051Z,0.00
2019-02-14T05:17:10.051Z,0.00
2019-02-14T05:18:09.930Z,0.00
2019-02-14T05:19:09.927Z,0.00
2019-02-14T05:20:09.807Z,0.00
2019-02-14T05:21:09.807Z,0.00
2019-02-14T05:22:09.773Z,0.00
2019-02-14T05:23:09.688Z,0.00
2019-02-14T05:24:09.687Z,0.00
2019-02-14T05:25:09.568Z,0.00
2019-02-14T05:26:09.568Z,0.00
2019-02-14T05:27:09.449Z,0.00
2019-02-14T05:28:09.447Z,0.00
2019-02-14T05:29:09.409Z,0.00
2019-02-14T05:30:09.327Z,0.00
2019-02-14T05:31:09.325Z,0.00
2019-02-14T05:32:09.210Z,0.00
2019-02-14T05:33:09.208Z,0.00
2019-02-14T05:34:09.088Z,0.00
2019-02-14T05:35:09.095Z,0.00
2019-02-14T05:36:09.091Z,0.00
2019-02-14T05:37:08.969Z,0.00
2019-02-14T05:38:08.965Z,0.00
2019-02-14T05:39:08.845Z,0.00
2019-02-14T05:40:08.846Z,0.00
2019-02-14T05:41:08.723Z,0.00
2019-02-14T05:42:08.729Z,0.00
2019-02-14T05:43:08.721Z,0.00
2019-02-14T05:44:08.604Z,0.00
2019-02-14T05:45:12.563Z,0.00
2019-02-14T05:46:08.485Z,0.00
2019-02-14T05:47:08.483Z,0.00
2019-02-14T05:48:08.361Z,0.00
2019-02-14T05:49:08.359Z,0.00
2019-02-14T05:50:08.362Z,0.00
2019-02-14T05:51:08.241Z,0.00
2019-02-14T05:52:08.240Z,0.00
2019-02-14T05:53:08.120Z,0.00
2019-02-14T05:54:08.120Z,0.00
2019-02-14T05:55:07.999Z,0.00
2019-02-14T05:56:08.000Z,0.00
2019-02-14T05:57:08.001Z,0.00
2019-02-14T05:58:07.883Z,0.00
2019-02-14T05:59:07.879Z,0.00
2019-02-14T06:00:07.760Z,0.00
2019-02-14T06:01:07.759Z,0.00
2019-02-14T06:02:07.643Z,0.00
2019-02-14T06:03:07.642Z,0.00
2019-02-14T06:04:07.639Z,0.00
2019-02-14T06:05:07.516Z,0.00
2019-02-14T06:06:07.522Z,0.00
2019-02-14T06:07:07.400Z,0.00
2019-02-14T06:08:07.396Z,0.00
2019-02-14T06:09:07.279Z,0.00
2019-02-14T06:10:07.276Z,0.00
2019-02-14T06:11:07.277Z,0.00
2019-02-14T06:12:07.158Z,0.00
2019-02-14T06:13:07.156Z,0.00
2019-02-14T06:14:07.036Z,0.00
2019-02-14T06:15:07.039Z,0.00
2019-02-14T06:16:06.923Z,0.00
2019-02-14T06:17:06.921Z,0.00
2019-02-14T06:18:06.936Z,0.00
2019-02-14T06:19:06.801Z,0.00
2019-02-14T06:20:06.795Z,0.00
2019-02-14T06:21:06.674Z,0.00
2019-02-14T06:22:06.674Z,0.00
2019-02-14T06:23:06.556Z,0.00
2019-02-14T06:24:06.554Z,0.00
2019-02-14T06:25:06.564Z,4.00
2019-02-14T06:26:06.435Z,4.00
2019-02-14T06:27:06.436Z,4.00
2019-02-14T06:28:06.318Z,4.00
2019-02-14T06:29:06.312Z,4.00
2019-02-14T06:30:06.196Z,4.00
2019-02-14T06:31:06.192Z,8.00
2019-02-14T06:32:06.192Z,8.00
2019-02-14T06:33:06.072Z,12.00
2019-02-14T06:34:06.073Z,12.00
2019-02-14T06:35:05.952Z,16.00
2019-02-14T06:36:05.952Z,20.00
2019-02-14T06:37:09.686Z,20.00
2019-02-14T06:38:05.830Z,24.00
2019-02-14T06:39:05.839Z,28.00
2019-02-14T06:40:05.709Z,32.00
2019-02-14T06:41:05.719Z,36.00
2019-02-14T06:42:05.594Z,40.00
2019-02-14T06:43:05.589Z,48.00
2019-02-14T06:44:05.470Z,52.00
2019-02-14T06:45:05.471Z,64.00
2019-02-14T06:46:05.470Z,68.00
2019-02-14T06:47:05.356Z,76.00
2019-02-14T06:48:05.349Z,84.00
2019-02-14T06:49:05.236Z,92.00
2019-02-14T06:50:05.230Z,100.00
2019-02-14T06:51:05.115Z,112.00
2019-02-14T06:52:05.109Z,120.00
2019-02-14T06:53:05.107Z,132.00
2019-02-14T06:54:04.986Z,140.00
2019-02-14T06:55:04.987Z,156.00
2019-02-14T06:56:04.871Z,164.00
2019-02-14T06:57:04.870Z,176.00
2019-02-14T06:58:04.753Z,188.00
2019-02-14T06:59:04.745Z,200.00
2019-02-14T07:00:04.748Z,216.00
2019-02-14T07:01:04.626Z,228.00
2019-02-14T07:02:04.629Z,244.00
2019-02-14T07:03:04.505Z,256.00
2019-02-14T07:04:04.506Z,272.00
2019-02-14T07:05:04.385Z,288.00
2019-02-14T07:06:04.385Z,304.00
2019-02-14T07:07:04.385Z,316.00
2019-02-14T07:08:04.265Z,332.00
2019-02-14T07:09:04.263Z,352.00
2019-02-14T07:10:04.143Z,368.00
2019-02-14T07:11:04.153Z,380.00
2019-02-14T07:12:04.025Z,396.00
2019-02-14T07:13:04.026Z,412.00
2019-02-14T07:14:04.022Z,428.00
2019-02-14T07:15:03.904Z,448.00
2019-02-14T07:16:03.902Z,460.00
2019-02-14T07:17:03.781Z,476.00
2019-02-14T07:18:03.781Z,488.00
2019-02-14T07:19:03.663Z,504.00
2019-02-14T07:20:03.663Z,516.00
2019-02-14T07:21:03.662Z,532.00
2019-02-14T07:22:03.542Z,544.00
2019-02-14T07:23:03.539Z,556.00
2019-02-14T07:24:03.419Z,568.00
2019-02-14T07:25:03.422Z,580.00
2019-02-14T07:26:03.299Z,596.00
2019-02-14T07:27:03.302Z,604.00
2019-02-14T07:28:03.302Z,620.00
2019-02-14T07:29:03.198Z,632.00
2019-02-14T07:30:03.179Z,644.00
2019-02-14T07:31:03.061Z,656.00
2019-02-14T07:32:03.060Z,668.00
2019-02-14T07:33:02.943Z,684.00
2019-02-14T07:34:04.093Z,700.00
2019-02-14T07:35:02.953Z,716.00
2019-02-14T07:36:02.816Z,736.00
2019-02-14T07:37:02.822Z,760.00
2019-02-14T07:38:02.703Z,788.00
2019-02-14T07:39:02.697Z,820.00
2019-02-14T07:40:02.705Z,868.00
2019-02-14T07:41:02.583Z,936.00
2019-02-14T07:42:02.576Z,1024.00
2019-02-14T07:43:02.456Z,1124.00
2019-02-14T07:44:02.456Z,1240.00
2019-02-14T07:45:02.335Z,1336.00
2019-02-14T07:46:02.336Z,1296.00
2019-02-14T07:47:02.347Z,1564.00
2019-02-14T07:48:02.218Z,1852.00
2019-02-14T07:49:02.223Z,1964.00
2019-02-14T07:50:02.099Z,2080.00
2019-02-14T07:51:02.099Z,2248.00
2019-02-14T07:52:01.974Z,2480.00
2019-02-14T07:53:01.974Z,2776.00
2019-02-14T07:54:01.856Z,3084.00
2019-02-14T07:55:01.972Z,3388.00
2019-02-14T07:56:01.855Z,3648.00
2019-02-14T07:57:01.736Z,3860.00
2019-02-14T07:58:01.939Z,4032.00
2019-02-14T07:59:01.611Z,4184.00
2019-02-14T08:00:01.939Z,4308.00
2019-02-14T08:01:01.490Z,4400.00
2019-02-14T08:02:01.505Z,4488.00
2019-02-14T08:03:01.492Z,4560.00
2019-02-14T08:04:01.391Z,4564.00
2019-02-14T08:05:01.374Z,4528.00
2019-02-14T08:06:01.249Z,4504.00
2019-02-14T08:07:01.252Z,4408.00
2019-02-14T08:08:01.133Z,4324.00
2019-02-14T08:09:01.129Z,4252.00
2019-02-14T08:10:01.135Z,4204.00
2019-02-14T08:11:01.011Z,4120.00
2019-02-14T08:12:01.011Z,4036.00
2019-02-14T08:13:01.220Z,3940.00
2019-02-14T08:14:00.889Z,3788.00
2019-02-14T08:15:00.851Z,3708.00
2019-02-14T08:16:00.858Z,3732.00
2019-02-14T08:17:00.777Z,3628.00
2019-02-14T08:18:00.974Z,3508.00
2019-02-14T08:19:00.647Z,3348.00
2019-02-14T08:20:00.526Z,3176.00
2019-02-14T08:21:00.537Z,3060.00
2019-02-14T08:22:00.527Z,2964.00
2019-02-14T08:23:00.407Z,2884.00
2019-02-14T08:24:00.626Z,2848.00
2019-02-14T08:25:00.326Z,2816.00
2019-02-14T08:26:00.295Z,2756.00
2019-02-14T08:27:00.372Z,2680.00
2019-02-14T08:28:00.172Z,2612.00
2019-02-14T08:29:00.169Z,2560.00
2019-02-14T08:30:00.052Z,2528.00
2019-02-14T08:31:00.052Z,2532.00
2019-02-14T08:31:59.924Z,2532.00
2019-02-14T08:32:59.926Z,2504.00
2019-02-14T08:33:59.926Z,2468.00
2019-02-14T08:34:59.804Z,2436.00
2019-02-14T08:35:59.806Z,2412.00
2019-02-14T08:36:59.683Z,2396.00
2019-02-14T08:37:59.684Z,2356.00
2019-02-14T08:38:59.563Z,2320.00
2019-02-14T08:39:59.893Z,2316.00
2019-02-14T08:40:59.569Z,2272.00
2019-02-14T08:41:59.445Z,2164.00
2019-02-14T08:42:59.442Z,1724.00
2019-02-14T08:43:59.323Z,1304.00
2019-02-14T08:44:59.324Z,1180.00
2019-02-14T08:45:59.332Z,1128.00
2019-02-14T08:46:59.200Z,1096.00
2019-02-14T08:47:59.206Z,1096.00
2019-02-14T08:48:59.086Z,1108.00
2019-02-14T08:49:59.082Z,1148.00
2019-02-14T08:50:58.971Z,1276.00
2019-02-14T08:51:58.959Z,1332.00
2019-02-14T08:52:58.962Z,1464.00
2019-02-14T08:53:58.841Z,1548.00
2019-02-14T08:54:58.841Z,1864.00
2019-02-14T08:55:58.725Z,1956.00
2019-02-14T08:56:58.718Z,1916.00
2019-02-14T08:57:58.721Z,1900.00
2019-02-14T08:58:58.598Z,1868.00
2019-02-14T08:59:58.601Z,1776.00
2019-02-14T09:00:58.481Z,1684.00
2019-02-14T09:01:58.485Z,1664.00
2019-02-14T09:02:58.360Z,1872.00
2019-02-14T09:03:58.357Z,1968.00
2019-02-14T09:04:58.356Z,2196.00
2019-02-14T09:05:58.244Z,2308.00
2019-02-14T09:06:58.241Z,2368.00
2019-02-14T09:07:58.117Z,2392.00
2019-02-14T09:08:58.115Z,2316.00
2019-02-14T09:09:58.117Z,2256.00
2019-02-14T09:10:57.998Z,2132.00
2019-02-14T09:11:57.997Z,1988.00
2019-02-14T09:12:57.877Z,1412.00
2019-02-14T09:13:57.881Z,1268.00
2019-02-14T09:14:57.758Z,1244.00
2019-02-14T09:15:57.762Z,1296.00
2019-02-14T09:16:57.755Z,1412.00
2019-02-14T09:17:57.637Z,1444.00
2019-02-14T09:18:57.639Z,1652.00
2019-02-14T09:19:57.517Z,2204.00
2019-02-14T09:20:57.520Z,2252.00
2019-02-14T09:21:57.520Z,2592.00
2019-02-14T09:22:57.400Z,2624.00
2019-02-14T09:23:57.393Z,2412.00
2019-02-14T09:24:57.279Z,2364.00
2019-02-14T09:25:57.272Z,2660.00
2019-02-14T09:26:57.272Z,2616.00
2019-02-14T09:27:57.152Z,2596.00
2019-02-14T09:28:57.152Z,2576.00
2019-02-14T09:29:57.032Z,2528.00
2019-02-14T09:30:57.033Z,2436.00
2019-02-14T09:31:56.915Z,2512.00
2019-02-14T09:32:56.920Z,2112.00
2019-02-14T09:33:56.916Z,2240.00
2019-02-14T09:34:56.790Z,2180.00
2019-02-14T09:35:56.790Z,2240.00
2019-02-14T09:36:56.671Z,2176.00
2019-02-14T09:38:03.045Z,2212.00
2019-02-14T09:38:56.670Z,2184.00
2019-02-14T09:39:56.551Z,2088.00
2019-02-14T09:40:56.549Z,1812.00
2019-02-14T09:41:56.433Z,1756.00
2019-02-14T09:42:56.428Z,1876.00
2019-02-14T09:43:56.430Z,1648.00
2019-02-14T09:44:56.309Z,1900.00
2019-02-14T09:45:56.311Z,2032.00
2019-02-14T09:46:56.189Z,1916.00
2019-02-14T09:47:56.191Z,1744.00
2019-02-14T09:48:56.189Z,1688.00
2019-02-14T09:49:56.077Z,1480.00
2019-02-14T09:50:56.136Z,1624.00
2019-02-14T09:51:55.947Z,1580.00
2019-02-14T09:52:55.957Z,1592.00
2019-02-14T09:53:55.964Z,1444.00
2019-02-14T09:54:55.827Z,1372.00
2019-02-14T09:55:55.829Z,1596.00
2019-02-14T09:56:55.718Z,1864.00
2019-02-14T09:57:55.706Z,2120.00
2019-02-14T09:58:55.722Z,2184.00
2019-02-14T09:59:55.589Z,2200.00
2019-02-14T10:00:55.593Z,2028.00
2019-02-14T10:01:55.466Z,1724.00
2019-02-14T10:02:55.475Z,1520.00
2019-02-14T10:03:55.468Z,1656.00
2019-02-14T10:04:55.351Z,1876.00
2019-02-14T10:05:55.345Z,1940.00
2019-02-14T10:06:55.234Z,2180.00
2019-02-14T10:07:55.236Z,2188.00
2019-02-14T10:08:55.236Z,2292.00
2019-02-14T10:09:55.114Z,2312.00
2019-02-14T10:10:55.104Z,2312.00
2019-02-14T10:11:54.985Z,2280.00
2019-02-14T10:12:54.983Z,2240.00
2019-02-14T10:13:54.982Z,2272.00
2019-02-14T10:14:54.866Z,2116.00
2019-02-14T10:15:54.864Z,2188.00
2019-02-14T10:16:54.743Z,1936.00
2019-02-14T10:17:54.742Z,2044.00
2019-02-14T10:18:54.867Z,1868.00
2019-02-14T10:19:54.627Z,1776.00
2019-02-14T10:20:54.621Z,2132.00
2019-02-14T10:21:54.501Z,2088.00
2019-02-14T10:22:54.500Z,2104.00
2019-02-14T10:23:54.504Z,1992.00
2019-02-14T10:24:54.385Z,1888.00
2019-02-14T10:25:54.385Z,1760.00
2019-02-14T10:26:54.262Z,1840.00
2019-02-14T10:27:54.266Z,1820.00
2019-02-14T10:28:54.259Z,1672.00
2019-02-14T10:29:54.139Z,1764.00
2019-02-14T10:30:54.143Z,1780.00
2019-02-14T10:31:54.101Z,1708.00
2019-02-14T10:32:54.019Z,1708.00
2019-02-14T10:33:54.020Z,1780.00
2019-02-14T10:34:53.899Z,1884.00
2019-02-14T10:35:53.898Z,2088.00
2019-02-14T10:36:53.897Z,2020.00
2019-02-14T10:37:53.782Z,1916.00
2019-02-14T10:38:53.778Z,2100.00
2019-02-14T10:39:53.657Z,2156.00
2019-02-14T10:40:53.657Z,2156.00
2019-02-14T10:41:53.657Z,2132.00
2019-02-14T10:42:53.538Z,2112.00
2019-02-14T10:43:53.550Z,2084.00
2019-02-14T10:44:53.417Z,2052.00
2019-02-14T10:45:53.418Z,2032.00
2019-02-14T10:46:53.416Z,1696.00
2019-02-14T10:47:53.295Z,1884.00
2019-02-14T10:48:53.307Z,1760.00
2019-02-14T10:49:53.174Z,1732.00
2019-02-14T10:50:53.174Z,1728.00
2019-02-14T10:51:53.174Z,1764.00
2019-02-14T10:52:53.055Z,1740.00
2019-02-14T10:53:53.062Z,1784.00
2019-02-14T10:54:53.018Z,1668.00
2019-02-14T10:55:52.931Z,1744.00
2019-02-14T10:56:52.934Z,1592.00
2019-02-14T10:57:52.812Z,1524.00
2019-02-14T10:58:52.812Z,1520.00
2019-02-14T10:59:52.812Z,1684.00
2019-02-14T11:00:52.692Z,1760.00
2019-02-14T11:01:52.690Z,1684.00
2019-02-14T11:02:52.571Z,1832.00
2019-02-14T11:03:52.572Z,1872.00
2019-02-14T11:04:52.575Z,1876.00
2019-02-14T11:05:52.454Z,1868.00
2019-02-14T11:06:52.449Z,1840.00
2019-02-14T11:07:52.350Z,1840.00
2019-02-14T11:08:52.336Z,1856.00
2019-02-14T11:09:52.339Z,1716.00
2019-02-14T11:10:52.217Z,1804.00
2019-02-14T11:11:52.211Z,1824.00
2019-02-14T11:12:52.212Z,1868.00
2019-02-14T11:13:52.088Z,1916.00
2019-02-14T11:14:52.089Z,1912.00
2019-02-14T11:15:51.970Z,1984.00
2019-02-14T11:16:51.971Z,2016.00
2019-02-14T11:17:51.970Z,1988.00
2019-02-14T11:18:51.851Z,2028.00
2019-02-14T11:19:51.849Z,1964.00
2019-02-14T11:20:51.729Z,2136.00
2019-02-14T11:21:51.729Z,2152.00
2019-02-14T11:22:51.727Z,2224.00
2019-02-14T11:23:51.609Z,2220.00
2019-02-14T11:24:51.609Z,2224.00
2019-02-14T11:25:51.570Z,2280.00
2019-02-14T11:26:51.499Z,2344.00
2019-02-14T11:27:51.485Z,2392.00
2019-02-14T11:28:51.367Z,2408.00
2019-02-14T11:29:51.366Z,2332.00
2019-02-14T11:30:51.366Z,2316.00
2019-02-14T11:31:51.249Z,2376.00
2019-02-14T11:32:51.245Z,2452.00
2019-02-14T11:33:51.240Z,2552.00
2019-02-14T11:34:51.126Z,2536.00
2019-02-14T11:35:51.127Z,2528.00
2019-02-14T11:36:51.007Z,2668.00
2019-02-14T11:37:51.005Z,2776.00
2019-02-14T11:38:51.010Z,2852.00
2019-02-14T11:39:50.891Z,2896.00
2019-02-14T11:40:50.892Z,2952.00
2019-02-14T11:41:51.327Z,2940.00
2019-02-14T11:42:50.764Z,3000.00
2019-02-14T11:43:50.761Z,3024.00
2019-02-14T11:44:50.643Z,3072.00
2019-02-14T11:45:50.647Z,3128.00
2019-02-14T11:46:51.728Z,3248.00
2019-02-14T11:47:50.522Z,3436.00
2019-02-14T11:48:50.526Z,3576.00
2019-02-14T11:49:50.402Z,3632.00
2019-02-14T11:50:50.404Z,3600.00
2019-02-14T11:51:50.400Z,3524.00
2019-02-14T11:52:50.283Z,3484.00
2019-02-14T11:53:50.329Z,3480.00
2019-02-14T11:54:50.244Z,3480.00
2019-02-14T11:55:50.178Z,3496.00
2019-02-14T11:56:50.161Z,3408.00
2019-02-14T11:57:50.047Z,3328.00
2019-02-14T11:58:50.042Z,3412.00
2019-02-14T11:59:50.004Z,3452.00
2019-02-14T12:00:49.924Z,3132.00
2019-02-14T12:01:55.378Z,3352.00
2019-02-14T12:02:55.482Z,3304.00
2019-02-14T12:03:49.800Z,3388.00
2019-02-14T12:04:49.799Z,3320.00
2019-02-14T12:05:49.690Z,3016.00
2019-02-14T12:06:49.776Z,3224.00
2019-02-14T12:07:49.682Z,2892.00
2019-02-14T12:08:59.619Z,2304.00
2019-02-14T12:09:49.558Z,2228.00
2019-02-14T12:10:49.434Z,2224.00
2019-02-14T12:11:49.441Z,2368.00
2019-02-14T12:12:49.437Z,2736.00
2019-02-14T12:13:49.318Z,3324.00
2019-02-14T12:14:49.316Z,3560.00
2019-02-14T12:15:49.202Z,3732.00
2019-02-14T12:16:49.199Z,3396.00
2019-02-14T12:17:49.195Z,3484.00
2019-02-14T12:18:49.076Z,3584.00
2019-02-14T12:19:49.088Z,3360.00
2019-02-14T12:20:49.077Z,3392.00
2019-02-14T12:21:48.959Z,3168.00
2019-02-14T12:22:48.954Z,3748.00
2019-02-14T12:23:48.835Z,3812.00
2019-02-14T12:24:48.835Z,3720.00
2019-02-14T12:25:48.833Z,3524.00
2019-02-14T12:26:48.719Z,3332.00
2019-02-14T12:27:48.712Z,3268.00
2019-02-14T12:28:48.719Z,3256.00
2019-02-14T12:29:48.593Z,3360.00
2019-02-14T12:30:48.593Z,3456.00
2019-02-14T12:31:48.470Z,3688.00
2019-02-14T12:32:48.476Z,3840.00
2019-02-14T12:33:48.479Z,3640.00
2019-02-14T12:34:48.353Z,3476.00
2019-02-14T12:35:48.350Z,3712.00
2019-02-14T12:36:48.357Z,3856.00
2019-02-14T12:37:48.230Z,3696.00
2019-02-14T12:38:48.230Z,3776.00
2019-02-14T12:39:48.194Z,3860.00
2019-02-14T12:40:48.120Z,3792.00
2019-02-14T12:41:48.110Z,4008.00
2019-02-14T12:42:47.992Z,4192.00
2019-02-14T12:43:48.000Z,3860.00
2019-02-14T12:44:47.988Z,4192.00
2019-02-14T12:45:47.868Z,4648.00
2019-02-14T12:46:47.869Z,4804.00
2019-02-14T12:47:47.868Z,4812.00
2019-02-14T12:48:47.747Z,4736.00
2019-02-14T12:49:47.760Z,4532.00
2019-02-14T12:50:47.626Z,4396.00
2019-02-14T12:51:47.628Z,4124.00
2019-02-14T12:52:47.627Z,4100.00
2019-02-14T12:53:47.511Z,4008.00
2019-02-14T12:54:47.511Z,3920.00
2019-02-14T12:55:47.867Z,3724.00
2019-02-14T12:56:47.389Z,3648.00
2019-02-14T12:57:47.389Z,3588.00
2019-02-14T12:58:47.389Z,3552.00
2019-02-14T12:59:47.265Z,3452.00
2019-02-14T13:00:47.268Z,3368.00
2019-02-14T13:01:47.151Z,3260.00
2019-02-14T13:02:47.146Z,3108.00
2019-02-14T13:03:47.147Z,2880.00
2019-02-14T13:04:47.026Z,2808.00
2019-02-14T13:05:47.025Z,2656.00
2019-02-14T13:06:47.024Z,2508.00
2019-02-14T13:07:46.909Z,2364.00
2019-02-14T13:08:46.904Z,2176.00
2019-02-14T13:09:46.908Z,2420.00
2019-02-14T13:10:46.784Z,2520.00
2019-02-14T13:11:46.784Z,2772.00
2019-02-14T13:12:46.671Z,2836.00
2019-02-14T13:13:49.940Z,2748.00
2019-02-14T13:14:46.661Z,2544.00
2019-02-14T13:15:46.543Z,2412.00
2019-02-14T13:16:46.542Z,2576.00
2019-02-14T13:17:46.546Z,2548.00
2019-02-14T13:18:46.425Z,2656.00
2019-02-14T13:19:46.431Z,2640.00
2019-02-14T13:20:46.422Z,2576.00
2019-02-14T13:21:46.303Z,2860.00
2019-02-14T13:22:46.301Z,3252.00
2019-02-14T13:23:46.187Z,3368.00
2019-02-14T13:24:46.180Z,3256.00
2019-02-14T13:25:46.182Z,3340.00
2019-02-14T13:26:46.063Z,3316.00
2019-02-14T13:27:46.063Z,3164.00
2019-02-14T13:28:46.059Z,2824.00
2019-02-14T13:29:45.940Z,3236.00
2019-02-14T13:30:45.941Z,3544.00
2019-02-14T13:31:45.942Z,3652.00
2019-02-14T13:32:45.822Z,3324.00
2019-02-14T13:33:45.819Z,3200.00
2019-02-14T13:34:45.781Z,2992.00
2019-02-14T13:35:45.700Z,2620.00
2019-02-14T13:36:45.699Z,2760.00
2019-02-14T13:37:45.583Z,2832.00
2019-02-14T13:38:45.577Z,2812.00
2019-02-14T13:39:45.577Z,2964.00
2019-02-14T13:40:45.462Z,3168.00
2019-02-14T13:41:45.463Z,3484.00
2019-02-14T13:42:45.459Z,4020.00
2019-02-14T13:43:45.338Z,3940.00
2019-02-14T13:44:45.339Z,3716.00
2019-02-14T13:45:45.341Z,3248.00
2019-02-14T13:46:45.214Z,2936.00
2019-02-14T13:47:45.219Z,2916.00
2019-02-14T13:48:45.094Z,2932.00
2019-02-14T13:49:45.098Z,3068.00
2019-02-14T13:50:45.095Z,3708.00
2019-02-14T13:51:44.978Z,4036.00
2019-02-14T13:52:44.982Z,3720.00
2019-02-14T13:53:44.977Z,3520.00
2019-02-14T13:54:44.859Z,3332.00
2019-02-14T13:55:44.853Z,3744.00
2019-02-14T13:56:53.713Z,4676.00
2019-02-14T13:57:44.737Z,5356.00
2019-02-14T13:58:44.739Z,5404.00
2019-02-14T13:59:44.735Z,5012.00
2019-02-14T14:00:44.612Z,4608.00
2019-02-14T14:01:44.615Z,4136.00
2019-02-14T14:02:44.492Z,3360.00
2019-02-14T14:03:44.510Z,3048.00
2019-02-14T14:04:44.897Z,2924.00
2019-02-14T14:05:44.372Z,3060.00
2019-02-14T14:06:44.371Z,3416.00
2019-02-14T14:07:44.372Z,3668.00
2019-02-14T14:08:44.260Z,4376.00
2019-02-14T14:09:44.253Z,4796.00
2019-02-14T14:10:44.251Z,3352.00
2019-02-14T14:11:44.131Z,3364.00